sensor_id;sensor_type;location;lat;lon;timestamp;pressure;altitude;pressure_sealevel;temperature;humidity
48778;BME280;34578;0.000;0.000;2022-09-27T00:04:02;95056.94;;;18.84;61.66
48778;BME280;34578;0.000;0.000;2022-09-27T00:09:03;95037.69;;;18.78;61.98
48778;BME280;34578;0.000;0.000;2022-09-27T00:14:04;95041.00;;;18.80;61.74
48778;BME280;34578;0.000;0.000;2022-09-27T00:19:09;95054.34;;;18.85;62.63
48778;BME280;34578;0.000;0.000;2022-09-27T00:24:14;95037.34;;;18.89;62.28
48778;BME280;34578;0.000;0.000;2022-09-27T00:29:16;95030.56;;;18.91;61.91
48778;BME280;34578;0.000;0.000;2022-09-27T00:34:23;95017.94;;;18.88;61.70
48778;BME280;34578;0.000;0.000;2022-09-27T00:39:24;95016.38;;;18.84;61.79
48778;BME280;34578;0.000;0.000;2022-09-27T00:49:43;95029.94;;;18.83;61.80
48778;BME280;34578;0.000;0.000;2022-09-27T00:54:50;95039.22;;;18.82;61.98
48778;BME280;34578;0.000;0.000;2022-09-27T01:00:01;95051.09;;;18.82;61.80
48778;BME280;34578;0.000;0.000;2022-09-27T01:05:05;95059.53;;;18.82;61.95
48778;BME280;34578;0.000;0.000;2022-09-27T01:10:08;95056.19;;;18.80;61.88
48778;BME280;34578;0.000;0.000;2022-09-27T01:32:06;95099.06;;;18.88;61.48
48778;BME280;34578;0.000;0.000;2022-09-27T01:38:01;95109.31;;;18.85;61.84
48778;BME280;34578;0.000;0.000;2022-09-27T01:43:09;95121.22;;;18.83;61.80
48778;BME280;34578;0.000;0.000;2022-09-27T01:48:19;95125.53;;;18.79;61.86
48778;BME280;34578;0.000;0.000;2022-09-27T01:53:30;95111.97;;;18.80;61.82
48778;BME280;34578;0.000;0.000;2022-09-27T01:58:56;95116.28;;;18.77;62.03
48778;BME280;34578;0.000;0.000;2022-09-27T02:04:00;95117.03;;;18.80;61.88
48778;BME280;34578;0.000;0.000;2022-09-27T02:09:28;95115.50;;;18.75;61.79
48778;BME280;34578;0.000;0.000;2022-09-27T02:14:57;95124.69;;;18.79;61.75
48778;BME280;34578;0.000;0.000;2022-09-27T02:20:17;95121.22;;;18.83;62.20
48778;BME280;34578;0.000;0.000;2022-09-27T02:25:30;95117.81;;;18.84;62.17
48778;BME280;34578;0.000;0.000;2022-09-27T02:30:33;95131.34;;;18.83;61.74
48778;BME280;34578;0.000;0.000;2022-09-27T02:35:46;95137.28;;;18.82;61.78
48778;BME280;34578;0.000;0.000;2022-09-27T02:40:47;95137.44;;;18.76;61.69
48778;BME280;34578;0.000;0.000;2022-09-27T02:51:39;95139.97;;;18.76;61.77
48778;BME280;34578;0.000;0.000;2022-09-27T02:56:53;95157.66;;;18.77;61.75
48778;BME280;34578;0.000;0.000;2022-09-27T03:02:20;95163.59;;;18.78;61.79
48778;BME280;34578;0.000;0.000;2022-09-27T03:07:39;95161.91;;;18.78;61.63
48778;BME280;34578;0.000;0.000;2022-09-27T03:12:40;95161.06;;;18.78;61.80
48778;BME280;34578;0.000;0.000;2022-09-27T03:17:41;95166.09;;;18.79;61.88
48778;BME280;34578;0.000;0.000;2022-09-27T03:23:01;95160.91;;;18.84;62.05
48778;BME280;34578;0.000;0.000;2022-09-27T03:28:02;95173.50;;;18.87;61.67
48778;BME280;34578;0.000;0.000;2022-09-27T03:33:03;95181.22;;;18.82;61.73
48778;BME280;34578;0.000;0.000;2022-09-27T03:38:39;95191.47;;;18.78;61.75
48778;BME280;34578;0.000;0.000;2022-09-27T03:43:42;95175.38;;;18.79;62.14
48778;BME280;34578;0.000;0.000;2022-09-27T03:48:43;95173.72;;;18.78;61.78
48778;BME280;34578;0.000;0.000;2022-09-27T03:53:43;95178.78;;;18.78;61.55
48778;BME280;34578;0.000;0.000;2022-09-27T03:58:44;95166.00;;;18.82;61.02
48778;BME280;34578;0.000;0.000;2022-09-27T04:03:44;95175.31;;;18.82;61.78
48778;BME280;34578;0.000;0.000;2022-09-27T04:08:59;95178.69;;;18.81;61.07
48778;BME280;34578;0.000;0.000;2022-09-27T04:14:12;95191.34;;;18.82;61.14
48778;BME280;34578;0.000;0.000;2022-09-27T04:19:28;95193.78;;;18.87;61.71
48778;BME280;34578;0.000;0.000;2022-09-27T04:24:42;95185.53;;;18.79;62.07
48778;BME280;34578;0.000;0.000;2022-09-27T04:29:58;95186.16;;;18.87;61.89
48778;BME280;34578;0.000;0.000;2022-09-27T04:35:21;95192.25;;;18.80;61.63
48778;BME280;34578;0.000;0.000;2022-09-27T04:40:40;95205.84;;;18.77;60.47
48778;BME280;34578;0.000;0.000;2022-09-27T04:45:44;95213.00;;;18.62;59.36
48778;BME280;34578;0.000;0.000;2022-09-27T04:50:45;95228.94;;;18.67;59.90
48778;BME280;34578;0.000;0.000;2022-09-27T04:55:45;95240.09;;;18.60;59.00
48778;BME280;34578;0.000;0.000;2022-09-27T05:00:47;95241.44;;;18.73;59.27
48778;BME280;34578;0.000;0.000;2022-09-27T05:06:20;95240.78;;;18.66;57.71
48778;BME280;34578;0.000;0.000;2022-09-27T05:11:21;95251.03;;;18.60;59.02
48778;BME280;34578;0.000;0.000;2022-09-27T05:16:57;95255.81;;;18.74;59.77
48778;BME280;34578;0.000;0.000;2022-09-27T05:22:09;95259.06;;;18.79;59.82
48778;BME280;34578;0.000;0.000;2022-09-27T05:27:12;95261.91;;;18.65;57.55
48778;BME280;34578;0.000;0.000;2022-09-27T05:32:17;95272.25;;;18.58;58.64
48778;BME280;34578;0.000;0.000;2022-09-27T05:37:22;95289.03;;;18.62;58.85
48778;BME280;34578;0.000;0.000;2022-09-27T05:42:22;95293.22;;;18.64;59.59
48778;BME280;34578;0.000;0.000;2022-09-27T05:47:23;95300.84;;;18.63;60.31
48778;BME280;34578;0.000;0.000;2022-09-27T05:52:23;95297.50;;;18.61;60.44
48778;BME280;34578;0.000;0.000;2022-09-27T05:57:24;95310.09;;;18.64;60.51
48778;BME280;34578;0.000;0.000;2022-09-27T06:02:27;95304.31;;;18.59;60.40
48778;BME280;34578;0.000;0.000;2022-09-27T06:07:30;95332.88;;;18.67;60.48
48778;BME280;34578;0.000;0.000;2022-09-27T06:12:32;95332.88;;;18.67;60.73
48778;BME280;34578;0.000;0.000;2022-09-27T06:17:34;95327.63;;;18.73;60.17
48778;BME280;34578;0.000;0.000;2022-09-27T06:22:36;95329.16;;;18.80;60.14
48778;BME280;34578;0.000;0.000;2022-09-27T06:27:37;95341.19;;;18.72;60.44
48778;BME280;34578;0.000;0.000;2022-09-27T06:32:45;95356.41;;;18.72;60.50
48778;BME280;34578;0.000;0.000;2022-09-27T06:38:05;95364.94;;;18.68;60.49
48778;BME280;34578;0.000;0.000;2022-09-27T06:43:09;95374.25;;;18.67;60.61
48778;BME280;34578;0.000;0.000;2022-09-27T06:48:35;95369.22;;;18.66;60.68
48778;BME280;34578;0.000;0.000;2022-09-27T06:53:52;95360.09;;;18.59;60.73
48778;BME280;34578;0.000;0.000;2022-09-27T06:58:53;95372.59;;;18.66;60.67
48778;BME280;34578;0.000;0.000;2022-09-27T07:04:15;95375.97;;;18.65;60.50
48778;BME280;34578;0.000;0.000;2022-09-27T07:09:34;95371.75;;;18.66;60.98
48778;BME280;34578;0.000;0.000;2022-09-27T07:14:38;95368.41;;;18.64;60.65
48778;BME280;34578;0.000;0.000;2022-09-27T07:19:39;95373.22;;;18.76;60.35
48778;BME280;34578;0.000;0.000;2022-09-27T07:24:41;95380.78;;;18.77;60.39
48778;BME280;34578;0.000;0.000;2022-09-27T07:29:42;95389.31;;;18.75;60.33
48778;BME280;34578;0.000;0.000;2022-09-27T07:34:42;95388.47;;;18.73;60.48
48778;BME280;34578;0.000;0.000;2022-09-27T07:39:44;95386.91;;;18.67;60.53
48778;BME280;34578;0.000;0.000;2022-09-27T07:44:44;95371.03;;;18.61;60.82
48778;BME280;34578;0.000;0.000;2022-09-27T07:50:07;95386.97;;;18.66;60.75
48778;BME280;34578;0.000;0.000;2022-09-27T07:55:18;95383.66;;;18.62;60.44
48778;BME280;34578;0.000;0.000;2022-09-27T08:00:37;95392.88;;;18.65;60.79
48778;BME280;34578;0.000;0.000;2022-09-27T08:05:39;95400.47;;;18.65;60.72
48778;BME280;34578;0.000;0.000;2022-09-27T08:10:39;95410.69;;;18.62;60.65
48778;BME280;34578;0.000;0.000;2022-09-27T08:15:43;95419.09;;;18.64;60.90
48778;BME280;34578;0.000;0.000;2022-09-27T08:20:44;95415.44;;;18.77;60.55
48778;BME280;34578;0.000;0.000;2022-09-27T08:25:59;95420.53;;;18.77;60.15
48778;BME280;34578;0.000;0.000;2022-09-27T08:31:02;95429.81;;;18.76;60.39
48778;BME280;34578;0.000;0.000;2022-09-27T08:36:02;95428.22;;;18.72;60.36
48778;BME280;34578;0.000;0.000;2022-09-27T08:41:12;95446.13;;;18.65;60.66
48778;BME280;34578;0.000;0.000;2022-09-27T08:51:29;95458.00;;;18.63;60.89
48778;BME280;34578;0.000;0.000;2022-09-27T08:56:30;95478.25;;;18.64;60.63
48778;BME280;34578;0.000;0.000;2022-09-27T09:01:31;95469.84;;;18.62;60.66
48778;BME280;34578;0.000;0.000;2022-09-27T09:07:20;95462.25;;;18.62;60.71
48778;BME280;34578;0.000;0.000;2022-09-27T09:12:50;95456.41;;;18.59;60.57
48778;BME280;34578;0.000;0.000;2022-09-27T09:18:20;95456.25;;;18.65;60.71
48778;BME280;34578;0.000;0.000;2022-09-27T09:34:38;95453.56;;;18.72;60.28
48778;BME280;34578;0.000;0.000;2022-09-27T09:39:32;95444.41;;;18.67;60.39
48778;BME280;34578;0.000;0.000;2022-09-27T09:44:47;95430.97;;;18.62;60.62
48778;BME280;34578;0.000;0.000;2022-09-27T09:49:53;95434.38;;;18.61;60.53
48778;BME280;34578;0.000;0.000;2022-09-27T09:55:02;95438.59;;;18.62;60.63
48778;BME280;34578;0.000;0.000;2022-09-27T10:00:15;95432.72;;;18.60;60.72
48778;BME280;34578;0.000;0.000;2022-09-27T10:05:20;95436.06;;;18.62;60.47
48778;BME280;34578;0.000;0.000;2022-09-27T10:10:26;95421.72;;;18.59;60.66
48778;BME280;34578;0.000;0.000;2022-09-27T10:16:03;95425.88;;;18.63;60.41
48778;BME280;34578;0.000;0.000;2022-09-27T10:21:13;95422.47;;;18.66;60.63
48778;BME280;34578;0.000;0.000;2022-09-27T10:26:17;95425.66;;;18.74;60.51
48778;BME280;34578;0.000;0.000;2022-09-27T10:31:20;95400.41;;;18.69;60.39
48778;BME280;34578;0.000;0.000;2022-09-27T10:36:35;95409.72;;;18.67;59.91
48778;BME280;34578;0.000;0.000;2022-09-27T10:41:40;95395.41;;;18.66;60.07
48778;BME280;34578;0.000;0.000;2022-09-27T10:47:05;95401.34;;;18.65;60.34
48778;BME280;34578;0.000;0.000;2022-09-27T10:52:20;95377.94;;;18.54;60.47
48778;BME280;34578;0.000;0.000;2022-09-27T10:57:29;95393.72;;;18.65;60.37
48778;BME280;34578;0.000;0.000;2022-09-27T11:02:40;95379.50;;;18.58;60.53
48778;BME280;34578;0.000;0.000;2022-09-27T11:07:53;95387.03;;;18.63;60.58
48778;BME280;34578;0.000;0.000;2022-09-27T11:18:23;95385.34;;;18.62;60.52
48778;BME280;34578;0.000;0.000;2022-09-27T11:34:34;95373.25;;;18.73;60.40
48778;BME280;34578;0.000;0.000;2022-09-27T11:40:07;95362.34;;;18.71;60.37
48778;BME280;34578;0.000;0.000;2022-09-27T11:45:27;95353.16;;;18.67;60.74
48778;BME280;34578;0.000;0.000;2022-09-27T12:06:48;95344.81;;;18.62;60.42
48778;BME280;34578;0.000;0.000;2022-09-27T12:12:03;95344.59;;;18.71;60.24
48778;BME280;34578;0.000;0.000;2022-09-27T12:17:11;95342.06;;;18.71;60.05
48778;BME280;34578;0.000;0.000;2022-09-27T12:22:37;95337.84;;;18.70;60.09
48778;BME280;34578;0.000;0.000;2022-09-27T12:27:51;95324.19;;;18.77;60.51
48778;BME280;34578;0.000;0.000;2022-09-27T12:33:22;95329.25;;;18.77;60.45
48778;BME280;34578;0.000;0.000;2022-09-27T12:38:36;95337.00;;;18.71;60.13
48778;BME280;34578;0.000;0.000;2022-09-27T12:43:42;95328.47;;;18.75;59.80
48778;BME280;34578;0.000;0.000;2022-09-27T13:00:08;95310.63;;;18.78;59.67
48778;BME280;34578;0.000;0.000;2022-09-27T13:05:22;95331.75;;;18.78;59.76
48778;BME280;34578;0.000;0.000;2022-09-27T13:10:43;95340.22;;;18.77;59.69
48778;BME280;34578;0.000;0.000;2022-09-27T13:16:01;95335.91;;;18.81;59.58
48778;BME280;34578;0.000;0.000;2022-09-27T13:21:08;95351.97;;;18.80;59.63
48778;BME280;34578;0.000;0.000;2022-09-27T13:26:41;95353.66;;;18.81;60.22
48778;BME280;34578;0.000;0.000;2022-09-27T13:48:13;95363.00;;;18.79;60.14
48778;BME280;34578;0.000;0.000;2022-09-27T13:53:35;95366.72;;;18.64;60.42
48778;BME280;34578;0.000;0.000;2022-09-27T13:58:58;95361.53;;;18.69;60.45
48778;BME280;34578;0.000;0.000;2022-09-27T14:04:30;95364.81;;;18.74;60.33
48778;BME280;34578;0.000;0.000;2022-09-27T14:09:38;95374.22;;;18.69;59.84
48778;BME280;34578;0.000;0.000;2022-09-27T14:14:51;95363.22;;;18.70;60.22
48778;BME280;34578;0.000;0.000;2022-09-27T14:19:54;95355.59;;;18.70;60.38
48778;BME280;34578;0.000;0.000;2022-09-27T14:24:56;95358.06;;;18.73;61.29
48778;BME280;34578;0.000;0.000;2022-09-27T14:30:17;95367.19;;;18.80;61.70
48778;BME280;34578;0.000;0.000;2022-09-27T14:35:25;95367.28;;;18.77;61.49
48778;BME280;34578;0.000;0.000;2022-09-27T14:41:05;95364.81;;;18.74;60.60
48778;BME280;34578;0.000;0.000;2022-09-27T14:46:07;95359.28;;;18.57;59.61
48778;BME280;34578;0.000;0.000;2022-09-27T14:56:24;95347.25;;;18.65;60.66
48778;BME280;34578;0.000;0.000;2022-09-27T15:01:27;95343.88;;;18.66;60.47
48778;BME280;34578;0.000;0.000;2022-09-27T15:06:28;95346.34;;;18.67;60.69
48778;BME280;34578;0.000;0.000;2022-09-27T15:11:29;95347.41;;;18.59;60.07
48778;BME280;34578;0.000;0.000;2022-09-27T15:16:33;95334.66;;;18.62;60.77
48778;BME280;34578;0.000;0.000;2022-09-27T15:21:36;95324.53;;;18.62;60.69
48778;BME280;34578;0.000;0.000;2022-09-27T15:26:40;95328.66;;;18.66;60.85
48778;BME280;34578;0.000;0.000;2022-09-27T15:31:42;95337.00;;;18.71;61.27
48778;BME280;34578;0.000;0.000;2022-09-27T15:36:52;95339.47;;;18.74;60.99
48778;BME280;34578;0.000;0.000;2022-09-27T15:52:46;95347.25;;;18.65;60.96
48778;BME280;34578;0.000;0.000;2022-09-27T15:57:55;95348.97;;;18.64;61.28
48778;BME280;34578;0.000;0.000;2022-09-27T16:02:59;95352.31;;;18.66;61.34
48778;BME280;34578;0.000;0.000;2022-09-27T16:07:59;95355.16;;;18.53;57.60
48778;BME280;34578;0.000;0.000;2022-09-27T16:13:00;95362.66;;;18.56;59.99
48778;BME280;34578;0.000;0.000;2022-09-27T16:18:00;95364.31;;;18.58;61.26
48778;BME280;34578;0.000;0.000;2022-09-27T16:23:01;95367.63;;;18.60;61.06
48778;BME280;34578;0.000;0.000;2022-09-27T16:28:02;95373.56;;;18.59;62.03
48778;BME280;34578;0.000;0.000;2022-09-27T16:33:03;95376.75;;;18.69;62.35
48778;BME280;34578;0.000;0.000;2022-09-27T16:38:04;95343.22;;;18.58;61.95
48778;BME280;34578;0.000;0.000;2022-09-27T16:43:04;95369.13;;;18.70;61.78
48778;BME280;34578;0.000;0.000;2022-09-27T16:48:06;95372.66;;;18.63;61.92
48778;BME280;34578;0.000;0.000;2022-09-27T16:53:06;95370.06;;;18.65;61.58
48778;BME280;34578;0.000;0.000;2022-09-27T16:58:07;95375.09;;;18.68;61.39
48778;BME280;34578;0.000;0.000;2022-09-27T17:03:08;95371.69;;;18.69;61.31
48778;BME280;34578;0.000;0.000;2022-09-27T17:08:09;95365.78;;;18.68;61.54
48778;BME280;34578;0.000;0.000;2022-09-27T17:13:09;95376.84;;;18.66;61.55
48778;BME280;34578;0.000;0.000;2022-09-27T17:18:10;95367.47;;;18.68;60.51
48778;BME280;34578;0.000;0.000;2022-09-27T17:23:12;95370.72;;;18.73;60.43
48778;BME280;34578;0.000;0.000;2022-09-27T17:28:12;95364.88;;;18.71;60.13
48778;BME280;34578;0.000;0.000;2022-09-27T17:33:13;95371.47;;;18.78;63.33
48778;BME280;34578;0.000;0.000;2022-09-27T17:38:13;95359.75;;;18.74;63.25
48778;BME280;34578;0.000;0.000;2022-09-27T17:43:13;95371.56;;;18.75;62.92
48778;BME280;34578;0.000;0.000;2022-09-27T17:48:14;95361.47;;;18.72;63.08
48778;BME280;34578;0.000;0.000;2022-09-27T17:53:33;95367.47;;;18.69;62.99
48778;BME280;34578;0.000;0.000;2022-09-27T17:58:34;95370.03;;;18.68;63.25
48778;BME280;34578;0.000;0.000;2022-09-27T18:03:34;95363.28;;;18.67;62.89
48778;BME280;34578;0.000;0.000;2022-09-27T18:08:35;95365.84;;;18.65;63.24
48778;BME280;34578;0.000;0.000;2022-09-27T18:13:36;95376.00;;;18.64;63.08
48778;BME280;34578;0.000;0.000;2022-09-27T18:18:41;95376.78;;;18.67;63.24
48778;BME280;34578;0.000;0.000;2022-09-27T18:23:42;95377.66;;;18.65;63.27
48778;BME280;34578;0.000;0.000;2022-09-27T18:28:43;95381.81;;;18.69;61.88
48778;BME280;34578;0.000;0.000;2022-09-27T18:33:43;95380.09;;;18.71;63.88
48778;BME280;34578;0.000;0.000;2022-09-27T18:38:45;95372.31;;;18.78;63.34
48778;BME280;34578;0.000;0.000;2022-09-27T18:43:46;95369.91;;;18.74;63.35
48778;BME280;34578;0.000;0.000;2022-09-27T18:48:47;95368.19;;;18.73;62.66
48778;BME280;34578;0.000;0.000;2022-09-27T18:53:47;95375.00;;;18.71;63.06
48778;BME280;34578;0.000;0.000;2022-09-27T18:58:47;95372.56;;;18.68;63.09
48778;BME280;34578;0.000;0.000;2022-09-27T19:03:48;95362.41;;;18.68;62.43
48778;BME280;34578;0.000;0.000;2022-09-27T19:08:55;95369.03;;;18.73;61.05
48778;BME280;34578;0.000;0.000;2022-09-27T19:13:57;95374.31;;;18.66;61.91
48778;BME280;34578;0.000;0.000;2022-09-27T19:18:58;95373.44;;;18.65;62.49
48778;BME280;34578;0.000;0.000;2022-09-27T19:23:58;95384.53;;;18.61;62.49
48778;BME280;34578;0.000;0.000;2022-09-27T19:29:00;95378.75;;;18.55;63.10
48778;BME280;34578;0.000;0.000;2022-09-27T19:34:00;95373.47;;;18.64;62.75
48778;BME280;34578;0.000;0.000;2022-09-27T19:39:01;95374.13;;;18.72;64.01
48778;BME280;34578;0.000;0.000;2022-09-27T19:44:01;95360.59;;;18.73;63.73
48778;BME280;34578;0.000;0.000;2022-09-27T19:49:01;95342.84;;;18.73;61.37
48778;BME280;34578;0.000;0.000;2022-09-27T19:54:02;95352.94;;;18.76;61.54
48778;BME280;34578;0.000;0.000;2022-09-27T19:59:03;95371.56;;;18.75;62.13
48778;BME280;34578;0.000;0.000;2022-09-27T20:04:03;95365.63;;;18.76;61.51
48778;BME280;34578;0.000;0.000;2022-09-27T20:09:04;95363.94;;;18.75;62.20
48778;BME280;34578;0.000;0.000;2022-09-27T20:14:04;95367.34;;;18.74;62.07
48778;BME280;34578;0.000;0.000;2022-09-27T20:19:04;95361.41;;;18.75;61.49
48778;BME280;34578;0.000;0.000;2022-09-27T20:24:05;95362.28;;;18.74;62.71
48778;BME280;34578;0.000;0.000;2022-09-27T20:29:05;95340.38;;;18.71;62.17
48778;BME280;34578;0.000;0.000;2022-09-27T20:34:08;95348.78;;;18.72;62.28
48778;BME280;34578;0.000;0.000;2022-09-27T20:39:11;95339.38;;;18.77;63.16
48778;BME280;34578;0.000;0.000;2022-09-27T20:44:14;95341.94;;;18.77;63.46
48778;BME280;34578;0.000;0.000;2022-09-27T20:49:16;95332.56;;;18.79;62.46
48778;BME280;34578;0.000;0.000;2022-09-27T20:54:17;95319.19;;;18.74;62.74
48778;BME280;34578;0.000;0.000;2022-09-27T20:59:19;95314.97;;;18.73;62.74
48778;BME280;34578;0.000;0.000;2022-09-27T21:04:20;95299.75;;;18.73;62.65
48778;BME280;34578;0.000;0.000;2022-09-27T21:09:21;95313.28;;;18.73;62.43
48778;BME280;34578;0.000;0.000;2022-09-27T21:14:21;95309.09;;;18.71;62.43
48778;BME280;34578;0.000;0.000;2022-09-27T21:19:22;95295.59;;;18.70;62.72
48778;BME280;34578;0.000;0.000;2022-09-27T21:24:22;95294.75;;;18.70;62.86
48778;BME280;34578;0.000;0.000;2022-09-27T21:29:22;95291.41;;;18.69;62.69
48778;BME280;34578;0.000;0.000;2022-09-27T21:34:23;95287.25;;;18.67;62.71
48778;BME280;34578;0.000;0.000;2022-09-27T21:39:23;95294.75;;;18.71;63.61
48778;BME280;34578;0.000;0.000;2022-09-27T21:44:24;95271.88;;;18.73;63.98
48778;BME280;34578;0.000;0.000;2022-09-27T21:49:24;95271.81;;;18.76;62.71
48778;BME280;34578;0.000;0.000;2022-09-27T21:54:24;95270.19;;;18.72;62.59
48778;BME280;34578;0.000;0.000;2022-09-27T21:59:24;95276.16;;;18.71;62.62
48778;BME280;34578;0.000;0.000;2022-09-27T22:04:25;95265.19;;;18.70;62.23
48778;BME280;34578;0.000;0.000;2022-09-27T22:09:25;95244.09;;;18.68;62.43
48778;BME280;34578;0.000;0.000;2022-09-27T22:14:26;95233.13;;;18.68;62.54
48778;BME280;34578;0.000;0.000;2022-09-27T22:19:26;95238.22;;;18.66;62.58
48778;BME280;34578;0.000;0.000;2022-09-27T22:24:26;95249.28;;;18.64;62.47
48778;BME280;34578;0.000;0.000;2022-09-27T22:29:27;95233.19;;;18.65;62.41
48778;BME280;34578;0.000;0.000;2022-09-27T22:34:27;95202.94;;;18.59;62.32
48778;BME280;34578;0.000;0.000;2022-09-27T22:39:27;95200.22;;;18.66;62.71
48778;BME280;34578;0.000;0.000;2022-09-27T22:44:28;95205.16;;;18.71;63.29
48778;BME280;34578;0.000;0.000;2022-09-27T22:49:30;95189.09;;;18.72;63.37
48778;BME280;34578;0.000;0.000;2022-09-27T22:54:30;95172.22;;;18.71;62.48
48778;BME280;34578;0.000;0.000;2022-09-27T22:59:31;95160.50;;;18.67;62.44
48778;BME280;34578;0.000;0.000;2022-09-27T23:04:31;95175.66;;;18.68;62.35
48778;BME280;34578;0.000;0.000;2022-09-27T23:09:31;95163.97;;;18.63;62.48
48778;BME280;34578;0.000;0.000;2022-09-27T23:14:32;95162.34;;;18.60;62.65
48778;BME280;34578;0.000;0.000;2022-09-27T23:19:32;95143.91;;;18.55;62.81
48778;BME280;34578;0.000;0.000;2022-09-27T23:24:33;95129.59;;;18.53;62.85
48778;BME280;34578;0.000;0.000;2022-09-27T23:29:34;95139.66;;;18.56;62.60
48778;BME280;34578;0.000;0.000;2022-09-27T23:34:34;95111.81;;;18.54;62.77
48778;BME280;34578;0.000;0.000;2022-09-27T23:39:34;95114.38;;;18.54;62.68
48778;BME280;34578;0.000;0.000;2022-09-27T23:44:35;95106.47;;;18.65;63.28
48778;BME280;34578;0.000;0.000;2022-09-27T23:49:35;95093.69;;;18.69;63.18
48778;BME280;34578;0.000;0.000;2022-09-27T23:54:36;95079.44;;;18.64;62.42
48778;BME280;34578;0.000;0.000;2022-09-27T23:59:36;95084.53;;;18.64;62.79
